createdAt,value
2022-10-20T00:00:11.802Z,7.88
2022-10-20T00:01:11.658Z,7.81
2022-10-20T00:01:58.715Z,7.84
2022-10-20T00:02:52.730Z,7.81
2022-10-20T00:03:47.684Z,7.81
2022-10-20T00:04:41.680Z,7.74
2022-10-20T00:05:35.685Z,7.78
2022-10-20T00:06:45.650Z,7.76
2022-10-20T00:07:25.713Z,7.75
2022-10-20T00:08:05.724Z,7.75
2022-10-20T00:08:47.694Z,7.73
2022-10-20T00:09:27.720Z,7.76
2022-10-20T00:10:07.652Z,7.77
2022-10-20T00:10:48.787Z,7.79
2022-10-20T00:11:30.669Z,7.73
2022-10-20T00:12:11.721Z,7.75
2022-10-20T00:12:52.681Z,7.72
2022-10-20T00:13:26.434Z,7.72
2022-10-20T00:14:14.683Z,7.66
2022-10-20T00:14:48.477Z,7.69
2022-10-20T00:15:35.709Z,7.65
2022-10-20T00:16:09.572Z,7.66
2022-10-20T00:16:56.658Z,7.57
2022-10-20T00:17:30.444Z,7.60
2022-10-20T00:18:17.788Z,7.54
2022-10-20T00:18:51.892Z,7.59
2022-10-20T00:19:39.709Z,7.63
2022-10-20T00:21:06.730Z,7.67
2022-10-20T00:21:40.432Z,7.65
2022-10-20T00:22:28.640Z,7.70
2022-10-20T00:23:02.368Z,7.67
2022-10-20T00:23:43.713Z,7.69
2022-10-20T00:24:20.774Z,7.70
2022-10-20T00:24:54.380Z,7.69
2022-10-20T00:25:34.682Z,7.69
2022-10-20T00:26:17.712Z,7.67
2022-10-20T00:26:52.337Z,7.62
2022-10-20T00:27:32.694Z,7.64
2022-10-20T00:28:06.738Z,7.64
2022-10-20T00:28:40.446Z,7.63
2022-10-20T00:29:20.709Z,7.62
2022-10-20T00:29:55.774Z,7.54
2022-10-20T00:30:29.423Z,7.58
2022-10-20T00:31:11.678Z,7.62
2022-10-20T00:31:45.745Z,7.56
2022-10-20T00:32:19.412Z,7.58
2022-10-20T00:32:59.680Z,7.59
2022-10-20T00:33:33.860Z,7.60
2022-10-20T00:34:07.363Z,7.53
2022-10-20T00:34:48.740Z,7.56
2022-10-20T00:35:22.720Z,7.60
2022-10-20T00:36:03.869Z,7.54
2022-10-20T00:36:50.316Z,7.55
2022-10-20T00:37:25.760Z,7.54
2022-10-20T00:37:59.604Z,7.54
2022-10-20T00:38:41.712Z,7.60
2022-10-20T00:39:15.751Z,7.53
2022-10-20T00:39:55.677Z,7.53
2022-10-20T00:40:35.749Z,7.52
2022-10-20T00:41:18.649Z,7.52
2022-10-20T00:41:59.695Z,7.45
2022-10-20T00:42:39.847Z,7.45
2022-10-20T00:43:21.708Z,7.41
2022-10-20T00:44:44.646Z,7.42
2022-10-20T00:45:28.795Z,7.39
2022-10-20T00:46:04.748Z,7.22
2022-10-20T00:46:40.906Z,7.42
2022-10-20T00:47:28.649Z,7.39
2022-10-20T00:48:06.781Z,7.34
2022-10-20T00:48:41.916Z,7.41
2022-10-20T00:49:29.713Z,7.29
2022-10-20T00:50:03.780Z,7.34
2022-10-20T00:50:50.678Z,7.28
2022-10-20T00:51:35.783Z,7.32
2022-10-20T00:52:17.654Z,7.14
2022-10-20T00:52:58.694Z,7.32
2022-10-20T00:53:39.771Z,7.34
2022-10-20T00:54:24.884Z,7.32
2022-10-20T00:55:07.663Z,7.31
2022-10-20T00:55:49.688Z,7.31
2022-10-20T00:56:29.690Z,7.30
2022-10-20T00:57:10.715Z,7.24
2022-10-20T00:57:55.696Z,7.25
2022-10-20T00:58:35.751Z,7.21
2022-10-20T00:59:17.692Z,7.24
2022-10-20T00:59:57.649Z,7.24
2022-10-20T01:00:37.644Z,7.25
2022-10-20T01:01:18.717Z,7.28
2022-10-20T01:02:00.812Z,7.15
2022-10-20T01:02:41.702Z,7.31
2022-10-20T01:03:27.624Z,7.32
2022-10-20T01:04:08.784Z,7.34
2022-10-20T01:04:48.691Z,7.28
2022-10-20T01:05:29.723Z,7.15
2022-10-20T01:06:10.642Z,7.34
2022-10-20T01:06:51.710Z,7.31
2022-10-20T01:07:31.630Z,7.33
2022-10-20T01:08:12.763Z,7.32
2022-10-20T01:08:52.714Z,7.28
2022-10-20T01:09:33.810Z,7.32
2022-10-20T01:10:14.728Z,7.31
2022-10-20T01:11:16.663Z,7.32
2022-10-20T01:12:14.684Z,7.34
2022-10-20T01:13:13.701Z,7.27
2022-10-20T01:14:14.778Z,7.30
2022-10-20T01:15:14.712Z,7.30
2022-10-20T01:16:05.758Z,7.25
2022-10-20T01:17:21.589Z,7.27
2022-10-20T01:18:38.701Z,7.10
2022-10-20T01:20:09.661Z,7.31
2022-10-20T01:21:15.625Z,7.33
2022-10-20T01:22:35.628Z,7.30
2022-10-20T01:23:59.686Z,7.29
2022-10-20T01:25:18.551Z,7.37
2022-10-20T01:26:45.617Z,7.33
2022-10-20T01:27:59.617Z,7.34
2022-10-20T01:29:00.678Z,7.37
2022-10-20T01:30:19.625Z,7.36
2022-10-20T01:31:15.617Z,7.30
2022-10-20T01:32:40.578Z,7.13
2022-10-20T01:33:50.601Z,7.28
2022-10-20T01:34:58.668Z,7.18
2022-10-20T01:35:56.702Z,7.25
2022-10-20T01:36:57.776Z,7.17
2022-10-20T01:37:49.570Z,7.17
2022-10-20T01:39:02.560Z,7.10
2022-10-20T01:40:06.622Z,7.05
2022-10-20T01:41:06.606Z,6.97
2022-10-20T01:42:09.560Z,7.01
2022-10-20T01:43:05.621Z,6.86
2022-10-20T01:43:59.572Z,6.90
2022-10-20T01:44:54.602Z,6.98
2022-10-20T01:45:38.774Z,6.92
2022-10-20T01:46:19.782Z,6.95
2022-10-20T01:47:00.580Z,6.90
2022-10-20T01:47:42.713Z,6.84
2022-10-20T01:48:28.610Z,6.87
2022-10-20T01:49:10.709Z,6.84
2022-10-20T01:49:53.657Z,6.86
2022-10-20T01:50:33.654Z,6.92
2022-10-20T01:51:14.570Z,6.93
2022-10-20T01:51:54.640Z,6.94
2022-10-20T01:52:35.746Z,6.94
2022-10-20T01:53:16.581Z,6.91
2022-10-20T01:53:56.584Z,6.91
2022-10-20T01:54:37.662Z,6.91
2022-10-20T01:55:23.600Z,6.95
2022-10-20T01:56:05.701Z,6.91
2022-10-20T01:57:35.576Z,6.71
2022-10-20T01:58:43.696Z,6.82
2022-10-20T01:59:39.605Z,6.64
2022-10-20T02:00:22.593Z,6.67
2022-10-20T02:01:20.648Z,6.80
2022-10-20T02:02:44.632Z,6.82
2022-10-20T02:04:09.609Z,6.74
2022-10-20T02:05:32.603Z,6.72
2022-10-20T02:06:41.617Z,6.64
2022-10-20T02:07:41.653Z,6.71
2022-10-20T02:09:03.713Z,6.71
2022-10-20T02:09:51.669Z,6.72
2022-10-20T02:10:41.608Z,6.75
2022-10-20T02:11:34.608Z,6.69
2022-10-20T02:12:24.519Z,6.61
2022-10-20T02:13:07.606Z,6.68
2022-10-20T02:13:49.540Z,6.78
2022-10-20T02:14:39.605Z,6.71
2022-10-20T02:15:15.670Z,6.79
2022-10-20T02:16:07.582Z,6.80
2022-10-20T02:16:47.659Z,6.63
2022-10-20T02:17:36.582Z,6.67
2022-10-20T02:18:13.652Z,6.82
2022-10-20T02:19:00.616Z,6.56
2022-10-20T02:19:48.636Z,6.61
2022-10-20T02:20:45.701Z,6.75
2022-10-20T02:21:39.842Z,6.78
2022-10-20T02:22:34.842Z,6.79
2022-10-20T02:23:35.003Z,6.80
2022-10-20T02:24:32.629Z,6.76
2022-10-20T02:25:16.593Z,6.79
2022-10-20T02:25:59.612Z,6.71
2022-10-20T02:26:41.584Z,6.70
2022-10-20T02:27:31.660Z,6.70
2022-10-20T02:28:13.618Z,6.64
2022-10-20T02:29:00.703Z,6.68
2022-10-20T02:29:51.555Z,6.68
2022-10-20T02:30:31.617Z,6.69
2022-10-20T02:31:05.708Z,6.63
2022-10-20T02:31:53.549Z,6.66
2022-10-20T02:32:28.608Z,6.67
2022-10-20T02:33:15.616Z,6.66
2022-10-20T02:33:50.709Z,6.62
2022-10-20T02:34:41.036Z,6.50
2022-10-20T02:35:30.573Z,6.67
2022-10-20T02:36:13.684Z,6.64
2022-10-20T02:36:53.580Z,6.69
2022-10-20T02:37:33.844Z,6.68
2022-10-20T02:38:15.600Z,6.74
2022-10-20T02:38:55.488Z,6.71
2022-10-20T02:39:35.658Z,6.68
2022-10-20T02:40:17.523Z,6.69
2022-10-20T02:40:57.657Z,6.68
2022-10-20T02:41:37.603Z,6.68
2022-10-20T02:42:17.655Z,6.65
2022-10-20T02:42:57.602Z,6.67
2022-10-20T02:43:52.510Z,6.67
2022-10-20T02:44:46.569Z,6.60
2022-10-20T02:45:40.585Z,6.60
2022-10-20T02:46:34.612Z,6.64
2022-10-20T02:47:14.613Z,6.71
2022-10-20T02:47:54.666Z,6.64
2022-10-20T02:48:34.568Z,6.69
2022-10-20T02:49:14.661Z,6.70
2022-10-20T02:49:55.488Z,6.62
2022-10-20T02:50:35.670Z,6.69
2022-10-20T02:51:15.497Z,6.63
2022-10-20T02:51:55.779Z,6.66
2022-10-20T02:52:36.577Z,6.62
2022-10-20T02:53:16.557Z,6.57
2022-10-20T02:53:57.582Z,6.59
2022-10-20T02:54:37.611Z,6.41
2022-10-20T02:55:58.957Z,6.57
2022-10-20T02:56:38.548Z,6.56
2022-10-20T02:57:18.660Z,6.58
2022-10-20T02:58:00.532Z,6.56
2022-10-20T02:58:41.619Z,6.56
2022-10-20T02:59:25.572Z,6.49
2022-10-20T03:00:05.594Z,6.51
2022-10-20T03:00:45.605Z,6.48
2022-10-20T03:01:25.727Z,6.48
2022-10-20T03:02:05.521Z,6.42
2022-10-20T03:02:45.888Z,6.43
2022-10-20T03:03:26.622Z,6.46
2022-10-20T03:04:06.636Z,6.47
2022-10-20T03:04:46.514Z,6.50
2022-10-20T03:05:27.170Z,6.48
2022-10-20T03:06:19.500Z,6.40
2022-10-20T03:06:59.543Z,6.43
2022-10-20T03:07:39.570Z,6.44
2022-10-20T03:08:21.168Z,6.48
2022-10-20T03:09:02.644Z,6.47
2022-10-20T03:09:44.188Z,6.46
2022-10-20T03:10:24.558Z,6.41
2022-10-20T03:11:04.669Z,6.44
2022-10-20T03:11:44.502Z,6.45
2022-10-20T03:12:27.701Z,6.50
2022-10-20T03:13:12.523Z,6.51
2022-10-20T03:13:52.627Z,6.48
2022-10-20T03:14:32.547Z,6.48
2022-10-20T03:15:13.633Z,6.51
2022-10-20T03:15:53.557Z,6.49
2022-10-20T03:16:33.585Z,6.51
2022-10-20T03:17:13.562Z,6.45
2022-10-20T03:18:02.574Z,6.42
2022-10-20T03:18:42.580Z,6.44
2022-10-20T03:19:23.567Z,6.44
2022-10-20T03:20:03.708Z,6.42
2022-10-20T03:20:43.678Z,6.47
2022-10-20T03:21:24.653Z,6.41
2022-10-20T03:22:04.703Z,6.44
2022-10-20T03:22:45.555Z,6.43
2022-10-20T03:23:26.646Z,6.42
2022-10-20T03:24:06.505Z,6.46
2022-10-20T03:24:46.636Z,6.43
2022-10-20T03:25:26.510Z,6.38
2022-10-20T03:26:16.712Z,6.43
2022-10-20T03:26:56.562Z,6.34
2022-10-20T03:27:36.936Z,6.39
2022-10-20T03:28:17.651Z,6.39
2022-10-20T03:28:57.612Z,6.39
2022-10-20T03:29:37.460Z,6.33
2022-10-20T03:30:17.734Z,6.39
2022-10-20T03:30:57.509Z,6.42
2022-10-20T03:31:37.619Z,6.35
2022-10-20T03:32:18.467Z,6.38
2022-10-20T03:32:58.615Z,6.36
2022-10-20T03:33:39.444Z,6.37
2022-10-20T03:34:19.586Z,6.39
2022-10-20T03:34:59.584Z,6.38
2022-10-20T03:35:39.502Z,6.37
2022-10-20T03:36:19.480Z,6.38
2022-10-20T03:37:00.557Z,6.38
2022-10-20T03:37:40.487Z,6.31
2022-10-20T03:38:20.749Z,6.35
2022-10-20T03:39:00.520Z,6.25
2022-10-20T03:39:40.547Z,6.24
2022-10-20T03:40:20.438Z,6.17
2022-10-20T03:41:41.576Z,6.28
2022-10-20T03:42:21.585Z,6.25
2022-10-20T03:43:01.576Z,6.27
2022-10-20T03:43:41.476Z,6.30
2022-10-20T03:44:21.461Z,6.29
2022-10-20T03:45:01.543Z,6.22
2022-10-20T03:45:41.468Z,6.27
2022-10-20T03:46:21.594Z,6.22
2022-10-20T03:47:02.514Z,6.24
2022-10-20T03:47:43.586Z,6.25
2022-10-20T03:48:24.465Z,6.24
2022-10-20T03:49:04.604Z,6.15
2022-10-20T03:49:45.434Z,6.21
2022-10-20T03:50:25.988Z,6.19
2022-10-20T03:51:08.420Z,6.16
2022-10-20T03:51:48.583Z,6.21
2022-10-20T03:52:28.458Z,6.16
2022-10-20T03:53:08.619Z,6.10
2022-10-20T03:53:49.445Z,6.02
2022-10-20T03:54:29.552Z,6.08
2022-10-20T03:55:11.433Z,6.09
2022-10-20T03:55:52.801Z,6.13
2022-10-20T03:56:33.474Z,6.05
2022-10-20T03:57:13.493Z,6.04
2022-10-20T03:57:53.475Z,6.06
2022-10-20T03:58:33.579Z,6.06
2022-10-20T03:59:13.433Z,6.03
2022-10-20T03:59:53.572Z,6.02
2022-10-20T04:00:33.494Z,6.01
2022-10-20T04:01:14.691Z,6.01
2022-10-20T04:01:54.530Z,5.99
2022-10-20T04:02:50.601Z,5.98
2022-10-20T04:03:30.452Z,5.98
2022-10-20T04:04:10.828Z,5.91
2022-10-20T04:04:50.458Z,5.97
2022-10-20T04:05:30.681Z,5.99
2022-10-20T04:06:11.509Z,5.96
2022-10-20T04:06:51.637Z,5.98
2022-10-20T04:07:31.508Z,6.00
2022-10-20T04:08:11.500Z,6.00
2022-10-20T04:08:51.477Z,6.01
2022-10-20T04:09:31.571Z,6.01
2022-10-20T04:10:12.466Z,6.01
2022-10-20T04:10:52.486Z,6.00
2022-10-20T04:11:33.447Z,6.00
2022-10-20T04:12:13.549Z,5.99
2022-10-20T04:12:53.496Z,6.00
2022-10-20T04:13:33.473Z,5.93
2022-10-20T04:14:13.475Z,5.75
2022-10-20T04:14:54.602Z,5.94
2022-10-20T04:15:35.493Z,5.86
2022-10-20T04:16:15.562Z,5.93
2022-10-20T04:16:55.440Z,5.95
2022-10-20T04:17:36.835Z,5.97
2022-10-20T04:18:16.489Z,5.97
2022-10-20T04:18:58.514Z,5.90
2022-10-20T04:19:38.475Z,5.90
2022-10-20T04:20:19.526Z,5.94
2022-10-20T04:20:59.492Z,5.96
2022-10-20T04:21:39.665Z,5.96
2022-10-20T04:22:20.469Z,5.98
2022-10-20T04:23:00.547Z,5.98
2022-10-20T04:23:40.497Z,5.94
2022-10-20T04:24:20.556Z,5.89
2022-10-20T04:25:01.578Z,5.94
2022-10-20T04:25:45.557Z,5.87
2022-10-20T04:26:25.416Z,5.82
2022-10-20T04:27:05.570Z,5.80
2022-10-20T04:27:47.461Z,5.78
2022-10-20T04:28:28.506Z,5.77
2022-10-20T04:29:09.410Z,5.72
2022-10-20T04:29:50.540Z,5.70
2022-10-20T04:30:30.422Z,5.72
2022-10-20T04:31:11.473Z,5.68
2022-10-20T04:31:52.449Z,5.74
2022-10-20T04:32:32.573Z,5.76
2022-10-20T04:33:12.435Z,5.81
2022-10-20T04:33:52.568Z,5.81
2022-10-20T04:34:33.430Z,5.78
2022-10-20T04:35:14.527Z,5.77
2022-10-20T04:35:54.487Z,5.76
2022-10-20T04:36:34.579Z,5.78
2022-10-20T04:37:14.402Z,5.77
2022-10-20T04:37:54.476Z,5.77
2022-10-20T04:38:37.464Z,5.79
2022-10-20T04:39:18.551Z,5.78
2022-10-20T04:39:58.413Z,5.78
2022-10-20T04:40:38.515Z,5.70
2022-10-20T04:41:18.397Z,5.81
2022-10-20T04:41:58.468Z,5.79
2022-10-20T04:42:39.381Z,5.83
2022-10-20T04:43:19.486Z,5.81
2022-10-20T04:44:00.394Z,5.82
2022-10-20T04:44:40.452Z,5.89
2022-10-20T04:45:20.457Z,5.86
2022-10-20T04:46:02.645Z,5.91
2022-10-20T04:46:45.405Z,5.91
2022-10-20T04:47:25.457Z,5.92
2022-10-20T04:48:05.379Z,5.89
2022-10-20T04:48:49.481Z,5.91
2022-10-20T04:49:30.390Z,5.91
2022-10-20T04:50:11.477Z,5.89
2022-10-20T04:50:51.400Z,5.91
2022-10-20T04:51:45.412Z,5.96
2022-10-20T04:52:39.382Z,5.91
2022-10-20T04:53:33.389Z,5.93
2022-10-20T04:54:27.362Z,5.86
2022-10-20T04:55:22.352Z,5.85
2022-10-20T04:56:18.414Z,5.94
2022-10-20T04:57:05.429Z,5.95
2022-10-20T04:57:40.447Z,5.95
2022-10-20T04:58:27.376Z,5.98
2022-10-20T04:59:03.436Z,5.92
2022-10-20T04:59:50.345Z,5.97
2022-10-20T05:00:24.477Z,5.98
2022-10-20T05:01:16.354Z,5.98
2022-10-20T05:01:50.472Z,5.97
2022-10-20T05:02:31.393Z,5.83
2022-10-20T05:03:57.370Z,5.84
2022-10-20T05:04:37.461Z,5.86
2022-10-20T05:05:17.365Z,5.82
2022-10-20T05:05:57.414Z,5.83
2022-10-20T05:06:39.352Z,5.69
2022-10-20T05:07:19.406Z,5.84
2022-10-20T05:08:00.402Z,5.86
2022-10-20T05:08:40.620Z,5.83
2022-10-20T05:09:22.354Z,5.86
2022-10-20T05:10:02.531Z,5.86
2022-10-20T05:10:42.344Z,5.89
2022-10-20T05:11:23.460Z,5.90
2022-10-20T05:12:04.566Z,5.90
2022-10-20T05:12:45.420Z,5.87
2022-10-20T05:13:25.360Z,5.92
2022-10-20T05:14:05.431Z,5.90
2022-10-20T05:14:45.369Z,5.91
2022-10-20T05:15:25.453Z,5.90
2022-10-20T05:16:05.539Z,5.88
2022-10-20T05:16:52.752Z,5.89
2022-10-20T05:17:35.346Z,5.93
2022-10-20T05:18:15.425Z,5.90
2022-10-20T05:18:58.548Z,5.87
2022-10-20T05:19:38.443Z,5.90
2022-10-20T05:20:18.408Z,5.88
2022-10-20T05:21:08.456Z,5.84
2022-10-20T05:21:49.318Z,5.83
2022-10-20T05:22:29.464Z,5.83
2022-10-20T05:23:09.407Z,5.83
2022-10-20T05:23:50.413Z,5.85
2022-10-20T05:24:31.457Z,5.84
2022-10-20T05:25:35.133Z,5.79
2022-10-20T05:26:25.317Z,5.86
2022-10-20T05:27:05.436Z,5.82
2022-10-20T05:27:45.315Z,5.78
2022-10-20T05:28:25.489Z,5.74
2022-10-20T05:29:05.354Z,5.77
2022-10-20T05:29:45.469Z,5.75
2022-10-20T05:30:19.414Z,5.76
2022-10-20T05:31:15.348Z,5.76
2022-10-20T05:31:51.440Z,5.75
2022-10-20T05:32:38.559Z,5.76
2022-10-20T05:33:12.400Z,5.73
2022-10-20T05:34:02.308Z,5.79
2022-10-20T05:34:36.373Z,5.71
2022-10-20T05:35:16.373Z,5.71
2022-10-20T05:35:56.423Z,5.70
2022-10-20T05:36:37.390Z,5.69
2022-10-20T05:37:17.445Z,5.66
2022-10-20T05:37:57.318Z,5.72
2022-10-20T05:38:37.493Z,5.74
2022-10-20T05:39:20.716Z,5.72
2022-10-20T05:40:06.557Z,5.70
2022-10-20T05:40:46.347Z,5.60
2022-10-20T05:41:31.199Z,5.69
2022-10-20T05:42:13.313Z,5.69
2022-10-20T05:42:53.419Z,5.68
2022-10-20T05:43:33.312Z,5.62
2022-10-20T05:44:15.426Z,5.59
2022-10-20T05:44:55.313Z,5.59
2022-10-20T05:45:35.375Z,5.56
2022-10-20T05:46:16.334Z,5.58
2022-10-20T05:46:56.433Z,5.56
2022-10-20T05:47:36.347Z,5.54
2022-10-20T05:48:16.365Z,5.51
2022-10-20T05:49:02.369Z,5.45
2022-10-20T05:49:56.340Z,5.39
2022-10-20T05:50:50.303Z,5.54
2022-10-20T05:51:41.325Z,5.47
2022-10-20T05:52:15.378Z,5.52
2022-10-20T05:53:02.288Z,5.50
2022-10-20T05:53:36.368Z,5.53
2022-10-20T05:54:23.285Z,5.54
2022-10-20T05:54:57.446Z,5.56
2022-10-20T05:55:44.300Z,5.59
2022-10-20T05:56:23.438Z,5.44
2022-10-20T05:57:03.348Z,5.55
2022-10-20T05:57:43.410Z,5.58
2022-10-20T05:58:28.305Z,5.60
2022-10-20T05:59:08.402Z,5.61
2022-10-20T05:59:49.325Z,5.67
2022-10-20T06:00:31.535Z,5.54
2022-10-20T06:01:24.483Z,5.63
2022-10-20T06:03:13.937Z,5.71
2022-10-20T06:04:00.392Z,5.69
2022-10-20T06:04:41.314Z,5.79
2022-10-20T06:05:21.382Z,5.77
2022-10-20T06:06:06.278Z,5.81
2022-10-20T06:06:48.730Z,5.83
2022-10-20T06:07:28.334Z,5.88
2022-10-20T06:08:08.417Z,5.88
2022-10-20T06:08:48.299Z,5.86
2022-10-20T06:09:29.361Z,5.85
2022-10-20T06:10:18.322Z,5.88
2022-10-20T06:10:58.368Z,5.83
2022-10-20T06:11:39.429Z,5.64
2022-10-20T06:12:20.461Z,5.88
2022-10-20T06:13:00.372Z,5.89
2022-10-20T06:13:40.379Z,5.88
2022-10-20T06:14:21.292Z,5.89
2022-10-20T06:15:01.378Z,5.92
2022-10-20T06:15:44.362Z,5.92
2022-10-20T06:16:30.569Z,5.93
2022-10-20T06:17:10.264Z,5.94
2022-10-20T06:17:52.373Z,5.84
2022-10-20T06:18:42.315Z,5.96
2022-10-20T06:19:23.342Z,6.00
2022-10-20T06:20:03.279Z,5.84
2022-10-20T06:20:43.352Z,6.01
2022-10-20T06:21:29.390Z,6.04
2022-10-20T06:22:09.370Z,6.05
2022-10-20T06:22:50.320Z,5.97
2022-10-20T06:23:30.365Z,6.07
2022-10-20T06:24:12.305Z,6.08
2022-10-20T06:24:52.323Z,6.09
2022-10-20T06:25:32.267Z,6.05
2022-10-20T06:26:19.394Z,6.06
2022-10-20T06:26:59.301Z,6.06
2022-10-20T06:27:39.339Z,6.07
2022-10-20T06:28:19.325Z,6.05
2022-10-20T06:29:05.021Z,6.09
2022-10-20T06:29:45.370Z,6.05
2022-10-20T06:30:25.339Z,6.04
2022-10-20T06:31:06.264Z,6.07
2022-10-20T06:31:50.380Z,6.08
2022-10-20T06:32:30.310Z,6.06
2022-10-20T06:33:12.317Z,6.08
2022-10-20T06:33:54.267Z,6.06
2022-10-20T06:34:34.377Z,6.06
2022-10-20T06:35:15.324Z,5.96
2022-10-20T06:35:55.371Z,6.06
2022-10-20T06:36:36.264Z,6.16
2022-10-20T06:37:30.323Z,6.10
2022-10-20T06:38:24.244Z,6.19
2022-10-20T06:39:21.290Z,6.15
2022-10-20T06:40:15.292Z,6.15
2022-10-20T06:41:09.283Z,6.20
2022-10-20T06:42:09.490Z,6.25
2022-10-20T06:43:06.262Z,6.25
2022-10-20T06:44:06.329Z,6.29
2022-10-20T06:45:01.254Z,6.33
2022-10-20T06:45:41.269Z,6.35
2022-10-20T06:46:25.323Z,6.36
2022-10-20T06:47:05.256Z,6.37
2022-10-20T06:47:45.311Z,6.41
2022-10-20T06:48:25.313Z,6.34
2022-10-20T06:49:13.356Z,6.44
2022-10-20T06:49:55.269Z,6.42
2022-10-20T06:50:35.321Z,6.43
2022-10-20T06:51:20.269Z,6.45
2022-10-20T06:52:00.393Z,6.47
2022-10-20T06:52:41.224Z,6.53
2022-10-20T06:53:21.332Z,6.53
2022-10-20T06:54:02.260Z,6.57
2022-10-20T06:54:42.297Z,6.61
2022-10-20T06:55:23.254Z,6.61
2022-10-20T06:56:08.328Z,6.52
2022-10-20T06:56:48.278Z,6.64
2022-10-20T06:57:28.301Z,6.59
2022-10-20T06:58:08.225Z,6.69
2022-10-20T06:58:50.304Z,6.72
2022-10-20T06:59:30.244Z,6.70
2022-10-20T07:00:12.337Z,6.70
2022-10-20T07:00:52.274Z,6.72
2022-10-20T07:01:40.433Z,6.79
2022-10-20T07:02:22.279Z,6.71
2022-10-20T07:03:02.272Z,6.74
2022-10-20T07:03:43.273Z,6.79
2022-10-20T07:04:23.333Z,6.75
2022-10-20T07:05:03.260Z,6.74
2022-10-20T07:05:43.281Z,6.74
2022-10-20T07:06:36.224Z,6.67
2022-10-20T07:07:16.293Z,6.70
2022-10-20T07:08:00.251Z,6.71
2022-10-20T07:08:42.390Z,6.71
2022-10-20T07:09:25.244Z,6.65
2022-10-20T07:10:05.381Z,6.71
2022-10-20T07:10:45.232Z,6.72
2022-10-20T07:11:27.331Z,6.67
2022-10-20T07:12:09.249Z,6.64
2022-10-20T07:12:49.301Z,6.69
2022-10-20T07:13:29.265Z,6.72
2022-10-20T07:14:10.309Z,6.72
2022-10-20T07:14:50.266Z,6.69
2022-10-20T07:15:30.268Z,6.75
2022-10-20T07:16:12.217Z,6.77
2022-10-20T07:16:52.320Z,6.78
2022-10-20T07:17:33.223Z,6.80
2022-10-20T07:18:13.277Z,6.72
2022-10-20T07:18:54.253Z,6.77
2022-10-20T07:19:34.296Z,6.86
2022-10-20T07:20:15.228Z,6.92
2022-10-20T07:20:55.301Z,6.98
2022-10-20T07:21:45.279Z,7.00
2022-10-20T07:22:28.295Z,6.98
2022-10-20T07:23:08.251Z,7.07
2022-10-20T07:23:49.308Z,7.10
2022-10-20T07:24:30.240Z,7.10
2022-10-20T07:25:10.267Z,7.05
2022-10-20T07:25:50.250Z,7.15
2022-10-20T07:26:40.938Z,7.16
2022-10-20T07:27:23.226Z,7.16
2022-10-20T07:28:03.265Z,7.18
2022-10-20T07:28:53.346Z,7.17
2022-10-20T07:29:43.246Z,7.22
2022-10-20T07:30:37.222Z,7.15
2022-10-20T07:31:41.230Z,7.13
2022-10-20T07:32:35.482Z,7.30
2022-10-20T07:33:29.213Z,7.33
2022-10-20T07:34:27.992Z,7.37
2022-10-20T07:35:08.306Z,7.40
2022-10-20T07:36:03.185Z,7.37
2022-10-20T07:37:00.330Z,7.21
2022-10-20T07:37:54.196Z,7.33
2022-10-20T07:38:48.239Z,7.36
2022-10-20T07:39:45.184Z,7.36
2022-10-20T07:40:32.321Z,7.31
2022-10-20T07:41:12.587Z,7.47
2022-10-20T07:41:59.228Z,7.53
2022-10-20T07:42:35.089Z,7.55
2022-10-20T07:43:23.195Z,7.59
2022-10-20T07:43:58.950Z,7.61
2022-10-20T07:44:46.167Z,7.59
2022-10-20T07:45:20.278Z,7.62
2022-10-20T07:46:00.244Z,7.62
2022-10-20T07:46:40.287Z,7.61
2022-10-20T07:47:21.176Z,7.66
2022-10-20T07:48:02.017Z,7.67
2022-10-20T07:48:43.184Z,7.65
2022-10-20T07:50:24.222Z,7.60
2022-10-20T07:51:50.263Z,7.65
2022-10-20T07:52:47.248Z,7.73
2022-10-20T07:53:47.885Z,7.76
2022-10-20T07:54:43.170Z,7.75
2022-10-20T07:55:41.198Z,7.80
2022-10-20T07:56:42.169Z,7.85
2022-10-20T07:57:25.254Z,7.84
2022-10-20T07:58:05.233Z,7.86
2022-10-20T07:58:47.168Z,7.89
2022-10-20T07:59:27.385Z,7.94
2022-10-20T08:00:07.182Z,7.98
2022-10-20T08:00:47.261Z,8.02
2022-10-20T08:01:27.270Z,8.01
2022-10-20T08:02:07.339Z,8.00
2022-10-20T08:02:52.243Z,7.99
2022-10-20T08:03:32.261Z,8.08
2022-10-20T08:04:12.161Z,8.14
2022-10-20T08:05:04.973Z,8.13
2022-10-20T08:05:48.377Z,8.16
2022-10-20T08:06:28.234Z,8.24
2022-10-20T08:07:24.588Z,8.24
2022-10-20T08:08:12.280Z,8.26
2022-10-20T08:09:07.522Z,8.42
2022-10-20T08:10:01.157Z,8.43
2022-10-20T08:10:55.138Z,8.54
2022-10-20T08:11:52.799Z,8.53
2022-10-20T08:12:53.147Z,8.62
2022-10-20T08:13:35.188Z,8.68
2022-10-20T08:14:15.249Z,8.66
2022-10-20T08:14:55.150Z,8.69
2022-10-20T08:16:30.208Z,8.85
2022-10-20T08:17:24.148Z,8.84
2022-10-20T08:18:26.861Z,8.77
2022-10-20T08:19:18.924Z,8.87
2022-10-20T08:20:14.772Z,8.95
2022-10-20T08:20:55.148Z,8.77
2022-10-20T08:21:36.421Z,8.96
2022-10-20T08:22:16.159Z,9.01
2022-10-20T08:22:56.215Z,9.07
2022-10-20T08:23:36.141Z,9.08
2022-10-20T08:24:23.221Z,9.11
2022-10-20T08:25:18.143Z,9.16
2022-10-20T08:26:12.185Z,9.17
2022-10-20T08:27:06.153Z,9.24
2022-10-20T08:28:00.223Z,9.19
2022-10-20T08:28:54.225Z,9.29
2022-10-20T08:29:41.196Z,9.34
2022-10-20T08:30:23.809Z,9.38
2022-10-20T08:31:13.152Z,9.39
2022-10-20T08:31:47.252Z,9.24
2022-10-20T08:32:34.412Z,9.49
2022-10-20T08:33:09.246Z,9.35
2022-10-20T08:33:57.123Z,9.51
2022-10-20T08:34:31.205Z,9.50
2022-10-20T08:35:12.219Z,9.55
2022-10-20T08:35:52.230Z,9.52
2022-10-20T08:36:34.304Z,9.60
2022-10-20T08:37:15.268Z,9.51
2022-10-20T08:37:56.213Z,9.62
2022-10-20T08:38:36.218Z,9.66
2022-10-20T08:39:16.132Z,9.70
2022-10-20T08:39:56.185Z,9.63
2022-10-20T08:40:37.200Z,9.70
2022-10-20T08:41:34.571Z,9.68
2022-10-20T08:42:17.317Z,9.71
2022-10-20T08:43:00.436Z,9.78
2022-10-20T08:43:43.088Z,9.81
2022-10-20T08:44:39.231Z,9.82
2022-10-20T08:45:29.105Z,9.91
2022-10-20T08:46:09.270Z,9.96
2022-10-20T08:46:46.258Z,9.86
2022-10-20T08:47:44.165Z,9.93
2022-10-20T08:48:36.186Z,10.01
2022-10-20T08:49:33.106Z,10.01
2022-10-20T08:50:10.139Z,10.03
2022-10-20T08:50:58.151Z,10.09
2022-10-20T08:51:46.174Z,10.02
2022-10-20T08:52:41.113Z,10.18
2022-10-20T08:53:38.319Z,10.22
2022-10-20T08:54:32.102Z,10.25
2022-10-20T08:55:45.125Z,10.27
2022-10-20T08:56:43.113Z,10.27
2022-10-20T08:57:38.496Z,10.33
2022-10-20T08:58:26.223Z,10.38
2022-10-20T08:59:07.323Z,10.43
2022-10-20T08:59:47.263Z,10.35
2022-10-20T09:00:31.115Z,10.45
2022-10-20T09:01:35.271Z,10.47
2022-10-20T09:02:23.145Z,10.50
2022-10-20T09:03:08.164Z,10.40
2022-10-20T09:03:42.325Z,10.44
2022-10-20T09:04:41.154Z,10.48
2022-10-20T09:05:18.394Z,10.56
2022-10-20T09:06:16.100Z,10.47
2022-10-20T09:06:50.189Z,10.43
2022-10-20T09:07:47.234Z,10.51
2022-10-20T09:08:31.265Z,10.52
2022-10-20T09:09:33.247Z,10.54
2022-10-20T09:10:38.140Z,10.52
2022-10-20T09:11:39.113Z,10.53
2022-10-20T09:12:34.145Z,10.51
2022-10-20T09:13:40.404Z,10.57
2022-10-20T09:14:35.137Z,10.53
2022-10-20T09:15:33.114Z,10.42
2022-10-20T09:16:59.195Z,10.57
2022-10-20T09:18:00.251Z,10.64
2022-10-20T09:18:54.165Z,10.68
2022-10-20T09:19:48.137Z,10.73
2022-10-20T09:20:48.147Z,10.69
2022-10-20T09:21:43.109Z,10.79
2022-10-20T09:22:40.128Z,10.76
2022-10-20T09:23:59.170Z,10.76
2022-10-20T09:24:54.145Z,10.80
2022-10-20T09:25:49.118Z,10.83
2022-10-20T09:27:09.135Z,10.85
2022-10-20T09:28:05.134Z,10.84
2022-10-20T09:29:12.885Z,10.88
2022-10-20T09:30:08.157Z,10.96
2022-10-20T09:31:02.137Z,10.99
2022-10-20T09:32:15.394Z,10.94
2022-10-20T09:33:13.140Z,10.91
2022-10-20T09:34:07.133Z,11.04
2022-10-20T09:35:01.264Z,11.05
2022-10-20T09:35:55.096Z,11.11
2022-10-20T09:36:49.086Z,11.17
2022-10-20T09:37:43.112Z,11.15
2022-10-20T09:38:40.099Z,11.15
2022-10-20T09:39:33.171Z,11.11
2022-10-20T09:40:07.159Z,11.18
2022-10-20T09:41:25.049Z,11.22
2022-10-20T09:42:14.373Z,11.17
2022-10-20T09:43:09.087Z,11.28
2022-10-20T09:44:05.149Z,11.23
2022-10-20T09:45:00.138Z,11.23
2022-10-20T09:45:37.156Z,11.27
2022-10-20T09:46:29.096Z,11.32
2022-10-20T09:47:03.173Z,11.33
2022-10-20T09:47:53.072Z,11.39
2022-10-20T09:48:47.883Z,11.41
2022-10-20T09:49:41.123Z,11.38
2022-10-20T09:50:34.145Z,11.41
2022-10-20T09:51:37.095Z,11.31
2022-10-20T09:52:41.089Z,11.48
2022-10-20T09:53:43.061Z,11.49
2022-10-20T09:54:39.044Z,11.42
2022-10-20T09:55:42.344Z,11.45
2022-10-20T09:56:46.085Z,11.49
2022-10-20T09:57:40.077Z,11.58
2022-10-20T09:58:49.047Z,11.62
2022-10-20T09:59:47.110Z,11.61
2022-10-20T10:00:50.119Z,11.65
2022-10-20T10:01:44.081Z,11.56
2022-10-20T10:02:46.789Z,11.54
2022-10-20T10:03:37.306Z,11.52
2022-10-20T10:04:37.315Z,11.35
2022-10-20T10:05:33.071Z,11.53
2022-10-20T10:06:45.110Z,11.66
2022-10-20T10:07:35.102Z,11.65
2022-10-20T10:08:22.052Z,11.62
2022-10-20T10:09:05.206Z,11.63
2022-10-20T10:09:45.058Z,11.62
2022-10-20T10:10:26.428Z,11.61